Terminal Aerodrome Forecast
Issued by NWS Corpus Christi, TX

Home | Current Version | Previous Version | Text Only | Print | Product List | Glossary On
Versions: 1 2 3 4 5 6 7 8 9 10 11 12 13 14 15
000
FTUS44 KCRP 230535
TAFCRP
TAF
KCRP 230535Z 2306/2406 12009KT P6SM FEW018 SCT025 SCT040
     FM231000 11006KT P6SM VCSH SCT018 SCT050
     FM231700 13014G20KT P6SM SCT035 SCT060
     FM240000 12011KT P6SM FEW250=

USA.gov is the U.S. government's official web portal to all federal, state and local government web resources and services.